Terminal Aerodrome Forecast
Issued by NWS Melbourne, FL

Home | Current Version | Previous Version | Text Only | Print | Product List | Glossary On
Versions: 1 2 3 4 5 6 7 8 9 10 11 12 13 14 15
000
FTUS42 KMLB 192300
TAFMLB
TAF
KMLB 192336Z 2000/2024 03004KT 5SM -SHRA SCT020 BKN030 OVC050
      TEMPO 2000/2004 2SM SHRA BKN025 OVC050
     FM200400 05005KT 5SM -SHRA BKN030 OVC050
      TEMPO 2004/2006 3SM SHRA BKN025 OVC050
     FM201400 23005KT P6SM VCSH BKN030 OVC050 PROB30 2014/2018 3SM
      SHRA BKN020
     FM201800 25008KT P6SM VCSH SCT030 OVC050
      TEMPO 2018/2021 3SM TSRA BKN025CB=

USA.gov is the U.S. government's official web portal to all federal, state and local government web resources and services.